sensor_id;sensor_type;location;lat;lon;timestamp;P1;durP1;ratioP1;P2;durP2;ratioP2
25207;SDS011;13153;52.316;21.166;2023-11-22T00:01:29;16.80;;;8.43;;
25207;SDS011;13153;52.316;21.166;2023-11-22T00:03:54;18.13;;;8.50;;
25207;SDS011;13153;52.316;21.166;2023-11-22T00:06:20;17.90;;;8.50;;
25207;SDS011;13153;52.316;21.166;2023-11-22T00:08:46;16.27;;;8.70;;
25207;SDS011;13153;52.316;21.166;2023-11-22T00:11:12;19.15;;;9.10;;
25207;SDS011;13153;52.316;21.166;2023-11-22T00:13:41;17.70;;;8.88;;
25207;SDS011;13153;52.316;21.166;2023-11-22T00:16:07;17.25;;;8.73;;
25207;SDS011;13153;52.316;21.166;2023-11-22T00:18:35;17.02;;;7.97;;
25207;SDS011;13153;52.316;21.166;2023-11-22T00:21:04;17.50;;;8.50;;
25207;SDS011;13153;52.316;21.166;2023-11-22T00:23:30;15.90;;;7.88;;
25207;SDS011;13153;52.316;21.166;2023-11-22T00:25:55;14.98;;;7.95;;
25207;SDS011;13153;52.316;21.166;2023-11-22T00:28:24;15.55;;;7.50;;
25207;SDS011;13153;52.316;21.166;2023-11-22T00:30:50;12.48;;;7.10;;
25207;SDS011;13153;52.316;21.166;2023-11-22T00:33:16;16.92;;;8.18;;
25207;SDS011;13153;52.316;21.166;2023-11-22T00:35:44;15.18;;;7.93;;
25207;SDS011;13153;52.316;21.166;2023-11-22T00:38:10;14.15;;;7.85;;
25207;SDS011;13153;52.316;21.166;2023-11-22T00:40:37;14.60;;;7.40;;
25207;SDS011;13153;52.316;21.166;2023-11-22T00:43:02;14.75;;;7.95;;
25207;SDS011;13153;52.316;21.166;2023-11-22T00:45:28;21.95;;;7.82;;
25207;SDS011;13153;52.316;21.166;2023-11-22T00:47:54;15.65;;;7.25;;
25207;SDS011;13153;52.316;21.166;2023-11-22T00:50:20;14.40;;;7.03;;
25207;SDS011;13153;52.316;21.166;2023-11-22T00:52:46;14.05;;;7.20;;
25207;SDS011;13153;52.316;21.166;2023-11-22T00:55:13;18.40;;;8.88;;
25207;SDS011;13153;52.316;21.166;2023-11-22T00:57:39;15.30;;;7.60;;
25207;SDS011;13153;52.316;21.166;2023-11-22T01:00:05;12.68;;;7.35;;
25207;SDS011;13153;52.316;21.166;2023-11-22T01:02:36;13.98;;;7.00;;
25207;SDS011;13153;52.316;21.166;2023-11-22T01:05:07;13.02;;;6.97;;
25207;SDS011;13153;52.316;21.166;2023-11-22T01:07:38;16.00;;;7.28;;
25207;SDS011;13153;52.316;21.166;2023-11-22T01:10:04;19.13;;;7.65;;
25207;SDS011;13153;52.316;21.166;2023-11-22T01:12:31;12.82;;;6.88;;
25207;SDS011;13153;52.316;21.166;2023-11-22T01:14:57;15.32;;;7.55;;
25207;SDS011;13153;52.316;21.166;2023-11-22T01:17:24;13.10;;;6.70;;
25207;SDS011;13153;52.316;21.166;2023-11-22T01:19:50;13.48;;;6.45;;
25207;SDS011;13153;52.316;21.166;2023-11-22T01:22:15;12.45;;;7.07;;
25207;SDS011;13153;52.316;21.166;2023-11-22T01:24:42;12.88;;;6.40;;
25207;SDS011;13153;52.316;21.166;2023-11-22T01:27:08;15.05;;;7.00;;
25207;SDS011;13153;52.316;21.166;2023-11-22T01:29:34;14.30;;;6.40;;
25207;SDS011;13153;52.316;21.166;2023-11-22T01:32:00;10.63;;;5.57;;
25207;SDS011;13153;52.316;21.166;2023-11-22T01:34:25;11.77;;;6.10;;
25207;SDS011;13153;52.316;21.166;2023-11-22T01:36:51;10.68;;;5.82;;
25207;SDS011;13153;52.316;21.166;2023-11-22T01:39:17;11.35;;;5.93;;
25207;SDS011;13153;52.316;21.166;2023-11-22T01:41:46;10.75;;;5.93;;
25207;SDS011;13153;52.316;21.166;2023-11-22T01:44:14;10.98;;;5.53;;
25207;SDS011;13153;52.316;21.166;2023-11-22T01:46:41;10.95;;;6.05;;
25207;SDS011;13153;52.316;21.166;2023-11-22T01:49:08;10.25;;;5.50;;
25207;SDS011;13153;52.316;21.166;2023-11-22T01:51:35;9.90;;;5.78;;
25207;SDS011;13153;52.316;21.166;2023-11-22T01:54:06;10.70;;;5.80;;
25207;SDS011;13153;52.316;21.166;2023-11-22T01:56:35;12.27;;;5.97;;
25207;SDS011;13153;52.316;21.166;2023-11-22T01:59:03;8.75;;;5.60;;
25207;SDS011;13153;52.316;21.166;2023-11-22T02:01:30;10.88;;;5.78;;
25207;SDS011;13153;52.316;21.166;2023-11-22T02:03:56;9.38;;;5.57;;
25207;SDS011;13153;52.316;21.166;2023-11-22T02:06:23;8.38;;;5.45;;
25207;SDS011;13153;52.316;21.166;2023-11-22T02:08:50;12.35;;;6.00;;
25207;SDS011;13153;52.316;21.166;2023-11-22T02:11:17;10.55;;;6.15;;
25207;SDS011;13153;52.316;21.166;2023-11-22T02:13:47;9.98;;;5.75;;
25207;SDS011;13153;52.316;21.166;2023-11-22T02:16:14;10.13;;;5.75;;
25207;SDS011;13153;52.316;21.166;2023-11-22T02:18:47;11.52;;;5.93;;
25207;SDS011;13153;52.316;21.166;2023-11-22T02:21:15;11.73;;;5.45;;
25207;SDS011;13153;52.316;21.166;2023-11-22T02:23:42;9.95;;;6.00;;
25207;SDS011;13153;52.316;21.166;2023-11-22T02:26:08;9.85;;;5.30;;
25207;SDS011;13153;52.316;21.166;2023-11-22T02:28:34;10.70;;;5.63;;
25207;SDS011;13153;52.316;21.166;2023-11-22T02:30:59;10.57;;;5.68;;
25207;SDS011;13153;52.316;21.166;2023-11-22T02:33:25;13.73;;;5.50;;
25207;SDS011;13153;52.316;21.166;2023-11-22T02:35:51;12.75;;;6.03;;
25207;SDS011;13153;52.316;21.166;2023-11-22T02:38:16;11.40;;;6.13;;
25207;SDS011;13153;52.316;21.166;2023-11-22T02:40:45;10.95;;;6.00;;
25207;SDS011;13153;52.316;21.166;2023-11-22T02:43:11;13.85;;;6.00;;
25207;SDS011;13153;52.316;21.166;2023-11-22T02:45:37;17.60;;;7.00;;
25207;SDS011;13153;52.316;21.166;2023-11-22T02:48:03;14.55;;;6.18;;
25207;SDS011;13153;52.316;21.166;2023-11-22T02:50:34;15.73;;;6.32;;
25207;SDS011;13153;52.316;21.166;2023-11-22T02:53:02;10.90;;;5.93;;
25207;SDS011;13153;52.316;21.166;2023-11-22T02:55:29;11.15;;;6.07;;
25207;SDS011;13153;52.316;21.166;2023-11-22T02:57:55;11.95;;;5.82;;
25207;SDS011;13153;52.316;21.166;2023-11-22T03:00:20;12.75;;;6.30;;
25207;SDS011;13153;52.316;21.166;2023-11-22T03:02:46;11.55;;;6.18;;
25207;SDS011;13153;52.316;21.166;2023-11-22T03:05:16;14.52;;;6.78;;
25207;SDS011;13153;52.316;21.166;2023-11-22T03:07:43;14.48;;;6.35;;
25207;SDS011;13153;52.316;21.166;2023-11-22T03:10:08;15.00;;;6.28;;
25207;SDS011;13153;52.316;21.166;2023-11-22T03:12:35;9.63;;;5.32;;
25207;SDS011;13153;52.316;21.166;2023-11-22T03:15:01;12.50;;;6.18;;
25207;SDS011;13153;52.316;21.166;2023-11-22T03:17:30;15.13;;;6.53;;
25207;SDS011;13153;52.316;21.166;2023-11-22T03:19:58;16.30;;;7.47;;
25207;SDS011;13153;52.316;21.166;2023-11-22T03:22:25;16.92;;;7.13;;
25207;SDS011;13153;52.316;21.166;2023-11-22T03:24:51;13.85;;;7.47;;
25207;SDS011;13153;52.316;21.166;2023-11-22T03:27:18;13.45;;;7.20;;
25207;SDS011;13153;52.316;21.166;2023-11-22T03:29:43;14.32;;;6.40;;
25207;SDS011;13153;52.316;21.166;2023-11-22T03:32:09;16.20;;;7.30;;
25207;SDS011;13153;52.316;21.166;2023-11-22T03:34:37;13.50;;;6.43;;
25207;SDS011;13153;52.316;21.166;2023-11-22T03:37:02;13.23;;;7.47;;
25207;SDS011;13153;52.316;21.166;2023-11-22T03:39:28;13.57;;;7.20;;
25207;SDS011;13153;52.316;21.166;2023-11-22T03:41:54;13.75;;;6.03;;
25207;SDS011;13153;52.316;21.166;2023-11-22T03:44:20;15.35;;;6.45;;
25207;SDS011;13153;52.316;21.166;2023-11-22T03:46:46;13.80;;;6.78;;
25207;SDS011;13153;52.316;21.166;2023-11-22T03:49:12;11.48;;;5.78;;
25207;SDS011;13153;52.316;21.166;2023-11-22T03:51:39;11.00;;;5.95;;
25207;SDS011;13153;52.316;21.166;2023-11-22T03:54:07;11.02;;;5.57;;
25207;SDS011;13153;52.316;21.166;2023-11-22T03:56:35;12.40;;;5.72;;
25207;SDS011;13153;52.316;21.166;2023-11-22T03:59:00;15.15;;;6.03;;
25207;SDS011;13153;52.316;21.166;2023-11-22T04:01:26;13.35;;;6.22;;
25207;SDS011;13153;52.316;21.166;2023-11-22T04:03:52;13.77;;;6.18;;
25207;SDS011;13153;52.316;21.166;2023-11-22T04:06:18;14.15;;;5.65;;
25207;SDS011;13153;52.316;21.166;2023-11-22T04:08:45;15.32;;;7.13;;
25207;SDS011;13153;52.316;21.166;2023-11-22T04:11:13;16.10;;;7.20;;
25207;SDS011;13153;52.316;21.166;2023-11-22T04:13:38;14.13;;;7.30;;
25207;SDS011;13153;52.316;21.166;2023-11-22T04:16:05;14.15;;;6.70;;
25207;SDS011;13153;52.316;21.166;2023-11-22T04:18:37;10.90;;;6.22;;
25207;SDS011;13153;52.316;21.166;2023-11-22T04:21:04;16.40;;;6.05;;
25207;SDS011;13153;52.316;21.166;2023-11-22T04:23:30;10.73;;;5.88;;
25207;SDS011;13153;52.316;21.166;2023-11-22T04:26:00;11.85;;;6.22;;
25207;SDS011;13153;52.316;21.166;2023-11-22T04:28:27;12.05;;;6.22;;
25207;SDS011;13153;52.316;21.166;2023-11-22T04:30:54;13.50;;;7.00;;
25207;SDS011;13153;52.316;21.166;2023-11-22T04:33:21;12.73;;;7.18;;
25207;SDS011;13153;52.316;21.166;2023-11-22T04:35:48;11.57;;;6.78;;
25207;SDS011;13153;52.316;21.166;2023-11-22T04:38:15;13.35;;;6.63;;
25207;SDS011;13153;52.316;21.166;2023-11-22T04:40:40;12.65;;;7.07;;
25207;SDS011;13153;52.316;21.166;2023-11-22T04:43:09;12.73;;;7.20;;
25207;SDS011;13153;52.316;21.166;2023-11-22T04:45:35;13.43;;;6.60;;
25207;SDS011;13153;52.316;21.166;2023-11-22T04:48:01;12.48;;;6.85;;
25207;SDS011;13153;52.316;21.166;2023-11-22T04:50:26;13.35;;;7.32;;
25207;SDS011;13153;52.316;21.166;2023-11-22T04:52:52;12.32;;;6.22;;
25207;SDS011;13153;52.316;21.166;2023-11-22T04:55:18;15.10;;;7.05;;
25207;SDS011;13153;52.316;21.166;2023-11-22T04:57:45;14.93;;;7.55;;
25207;SDS011;13153;52.316;21.166;2023-11-22T05:00:11;17.98;;;7.88;;
25207;SDS011;13153;52.316;21.166;2023-11-22T05:02:38;13.98;;;7.50;;
25207;SDS011;13153;52.316;21.166;2023-11-22T05:05:05;21.00;;;8.25;;
25207;SDS011;13153;52.316;21.166;2023-11-22T05:07:32;16.15;;;8.32;;
25207;SDS011;13153;52.316;21.166;2023-11-22T05:09:57;23.58;;;8.25;;
25207;SDS011;13153;52.316;21.166;2023-11-22T05:12:23;22.73;;;9.55;;
25207;SDS011;13153;52.316;21.166;2023-11-22T05:14:49;26.27;;;10.40;;
25207;SDS011;13153;52.316;21.166;2023-11-22T05:17:15;24.35;;;9.95;;
25207;SDS011;13153;52.316;21.166;2023-11-22T05:19:41;23.70;;;8.98;;
25207;SDS011;13153;52.316;21.166;2023-11-22T05:22:07;17.10;;;8.63;;
25207;SDS011;13153;52.316;21.166;2023-11-22T05:24:32;21.17;;;8.43;;
25207;SDS011;13153;52.316;21.166;2023-11-22T05:27:00;22.48;;;9.25;;
25207;SDS011;13153;52.316;21.166;2023-11-22T05:29:27;24.77;;;9.52;;
25207;SDS011;13153;52.316;21.166;2023-11-22T05:31:53;22.15;;;9.85;;
25207;SDS011;13153;52.316;21.166;2023-11-22T05:34:19;21.58;;;9.20;;
25207;SDS011;13153;52.316;21.166;2023-11-22T05:36:44;21.33;;;9.75;;
25207;SDS011;13153;52.316;21.166;2023-11-22T05:39:10;18.77;;;9.20;;
25207;SDS011;13153;52.316;21.166;2023-11-22T05:41:37;20.02;;;9.85;;
25207;SDS011;13153;52.316;21.166;2023-11-22T05:44:03;18.63;;;9.43;;
25207;SDS011;13153;52.316;21.166;2023-11-22T05:46:29;22.23;;;9.07;;
25207;SDS011;13153;52.316;21.166;2023-11-22T05:48:55;22.02;;;9.88;;
25207;SDS011;13153;52.316;21.166;2023-11-22T05:51:21;20.63;;;9.55;;
25207;SDS011;13153;52.316;21.166;2023-11-22T05:53:47;21.35;;;9.25;;
25207;SDS011;13153;52.316;21.166;2023-11-22T05:56:13;21.25;;;9.85;;
25207;SDS011;13153;52.316;21.166;2023-11-22T05:58:40;19.63;;;8.95;;
25207;SDS011;13153;52.316;21.166;2023-11-22T06:01:05;19.77;;;8.98;;
25207;SDS011;13153;52.316;21.166;2023-11-22T06:03:32;19.45;;;9.00;;
25207;SDS011;13153;52.316;21.166;2023-11-22T06:05:59;25.15;;;9.30;;
25207;SDS011;13153;52.316;21.166;2023-11-22T06:08:25;23.23;;;9.55;;
25207;SDS011;13153;52.316;21.166;2023-11-22T06:10:51;48.75;;;17.60;;
25207;SDS011;13153;52.316;21.166;2023-11-22T06:13:18;21.85;;;9.55;;
25207;SDS011;13153;52.316;21.166;2023-11-22T06:15:44;19.73;;;9.07;;
25207;SDS011;13153;52.316;21.166;2023-11-22T06:18:10;19.38;;;8.55;;
25207;SDS011;13153;52.316;21.166;2023-11-22T06:20:39;15.82;;;8.27;;
25207;SDS011;13153;52.316;21.166;2023-11-22T06:23:05;21.38;;;9.27;;
25207;SDS011;13153;52.316;21.166;2023-11-22T06:25:31;26.67;;;10.00;;
25207;SDS011;13153;52.316;21.166;2023-11-22T06:27:57;22.75;;;9.90;;
25207;SDS011;13153;52.316;21.166;2023-11-22T06:30:23;23.88;;;10.38;;
25207;SDS011;13153;52.316;21.166;2023-11-22T06:32:50;20.58;;;9.40;;
25207;SDS011;13153;52.316;21.166;2023-11-22T06:35:16;28.30;;;10.35;;
25207;SDS011;13153;52.316;21.166;2023-11-22T06:37:43;29.30;;;10.90;;
25207;SDS011;13153;52.316;21.166;2023-11-22T06:40:09;33.75;;;11.18;;
25207;SDS011;13153;52.316;21.166;2023-11-22T06:42:42;40.47;;;14.40;;
25207;SDS011;13153;52.316;21.166;2023-11-22T06:45:08;36.17;;;14.75;;
25207;SDS011;13153;52.316;21.166;2023-11-22T06:47:40;35.85;;;14.15;;
25207;SDS011;13153;52.316;21.166;2023-11-22T06:50:10;37.30;;;14.80;;
25207;SDS011;13153;52.316;21.166;2023-11-22T06:52:37;37.92;;;14.88;;
25207;SDS011;13153;52.316;21.166;2023-11-22T06:55:04;42.67;;;16.73;;
25207;SDS011;13153;52.316;21.166;2023-11-22T06:57:32;42.53;;;16.67;;
25207;SDS011;13153;52.316;21.166;2023-11-22T07:00:02;44.03;;;16.48;;
25207;SDS011;13153;52.316;21.166;2023-11-22T07:02:35;43.17;;;17.40;;
25207;SDS011;13153;52.316;21.166;2023-11-22T07:05:02;39.85;;;16.75;;
25207;SDS011;13153;52.316;21.166;2023-11-22T07:07:28;37.30;;;15.50;;
25207;SDS011;13153;52.316;21.166;2023-11-22T07:09:55;47.92;;;17.65;;
25207;SDS011;13153;52.316;21.166;2023-11-22T07:12:24;42.25;;;17.15;;
25207;SDS011;13153;52.316;21.166;2023-11-22T07:14:51;36.70;;;15.43;;
25207;SDS011;13153;52.316;21.166;2023-11-22T07:17:17;39.92;;;17.80;;
25207;SDS011;13153;52.316;21.166;2023-11-22T07:19:43;38.35;;;18.75;;
25207;SDS011;13153;52.316;21.166;2023-11-22T07:22:13;44.30;;;19.10;;
25207;SDS011;13153;52.316;21.166;2023-11-22T07:24:45;37.60;;;18.95;;
25207;SDS011;13153;52.316;21.166;2023-11-22T07:27:13;42.53;;;18.95;;
25207;SDS011;13153;52.316;21.166;2023-11-22T07:29:40;35.33;;;16.27;;
25207;SDS011;13153;52.316;21.166;2023-11-22T07:32:07;35.40;;;16.42;;
25207;SDS011;13153;52.316;21.166;2023-11-22T07:34:37;37.97;;;17.00;;
25207;SDS011;13153;52.316;21.166;2023-11-22T07:37:06;36.10;;;16.02;;
25207;SDS011;13153;52.316;21.166;2023-11-22T07:39:32;41.10;;;16.77;;
25207;SDS011;13153;52.316;21.166;2023-11-22T07:42:00;44.40;;;18.85;;
25207;SDS011;13153;52.316;21.166;2023-11-22T07:44:27;42.95;;;19.08;;
25207;SDS011;13153;52.316;21.166;2023-11-22T07:46:53;38.78;;;17.88;;
25207;SDS011;13153;52.316;21.166;2023-11-22T07:49:22;42.58;;;18.20;;
25207;SDS011;13153;52.316;21.166;2023-11-22T07:51:47;40.28;;;17.95;;
25207;SDS011;13153;52.316;21.166;2023-11-22T07:54:17;37.63;;;16.50;;
25207;SDS011;13153;52.316;21.166;2023-11-22T07:56:47;37.25;;;16.38;;
25207;SDS011;13153;52.316;21.166;2023-11-22T07:59:14;33.47;;;15.13;;
25207;SDS011;13153;52.316;21.166;2023-11-22T08:01:43;33.15;;;15.77;;
25207;SDS011;13153;52.316;21.166;2023-11-22T08:04:10;37.60;;;17.70;;
25207;SDS011;13153;52.316;21.166;2023-11-22T08:06:36;44.30;;;18.67;;
25207;SDS011;13153;52.316;21.166;2023-11-22T08:09:02;42.33;;;19.17;;
25207;SDS011;13153;52.316;21.166;2023-11-22T08:11:29;46.47;;;18.58;;
25207;SDS011;13153;52.316;21.166;2023-11-22T08:13:56;43.95;;;18.75;;
25207;SDS011;13153;52.316;21.166;2023-11-22T08:16:25;50.70;;;19.77;;
25207;SDS011;13153;52.316;21.166;2023-11-22T08:18:51;48.60;;;19.85;;
25207;SDS011;13153;52.316;21.166;2023-11-22T08:21:17;47.28;;;19.45;;
25207;SDS011;13153;52.316;21.166;2023-11-22T08:23:45;48.05;;;19.05;;
25207;SDS011;13153;52.316;21.166;2023-11-22T08:26:12;51.45;;;23.30;;
25207;SDS011;13153;52.316;21.166;2023-11-22T08:28:37;62.25;;;24.10;;
25207;SDS011;13153;52.316;21.166;2023-11-22T08:31:04;57.45;;;24.33;;
25207;SDS011;13153;52.316;21.166;2023-11-22T08:33:34;56.92;;;24.90;;
25207;SDS011;13153;52.316;21.166;2023-11-22T08:36:00;56.65;;;24.40;;
25207;SDS011;13153;52.316;21.166;2023-11-22T08:38:29;59.05;;;26.15;;
25207;SDS011;13153;52.316;21.166;2023-11-22T08:40:58;53.45;;;24.33;;
25207;SDS011;13153;52.316;21.166;2023-11-22T08:43:30;50.85;;;22.42;;
25207;SDS011;13153;52.316;21.166;2023-11-22T08:45:57;43.30;;;19.48;;
25207;SDS011;13153;52.316;21.166;2023-11-22T08:48:24;40.42;;;18.30;;
25207;SDS011;13153;52.316;21.166;2023-11-22T08:50:50;39.78;;;17.42;;
25207;SDS011;13153;52.316;21.166;2023-11-22T08:53:18;38.60;;;18.08;;
25207;SDS011;13153;52.316;21.166;2023-11-22T08:55:45;44.70;;;20.05;;
25207;SDS011;13153;52.316;21.166;2023-11-22T08:58:12;46.75;;;20.08;;
25207;SDS011;13153;52.316;21.166;2023-11-22T09:00:39;44.38;;;19.25;;
25207;SDS011;13153;52.316;21.166;2023-11-22T09:03:06;40.13;;;17.42;;
25207;SDS011;13153;52.316;21.166;2023-11-22T09:05:33;36.80;;;17.15;;
25207;SDS011;13153;52.316;21.166;2023-11-22T09:07:59;30.17;;;15.15;;
25207;SDS011;13153;52.316;21.166;2023-11-22T09:10:25;29.83;;;15.10;;
25207;SDS011;13153;52.316;21.166;2023-11-22T09:12:52;36.40;;;15.35;;
25207;SDS011;13153;52.316;21.166;2023-11-22T09:15:18;33.55;;;14.57;;
25207;SDS011;13153;52.316;21.166;2023-11-22T09:17:51;35.55;;;15.45;;
25207;SDS011;13153;52.316;21.166;2023-11-22T09:20:18;30.70;;;14.07;;
25207;SDS011;13153;52.316;21.166;2023-11-22T09:22:46;28.10;;;12.57;;
25207;SDS011;13153;52.316;21.166;2023-11-22T09:27:51;24.95;;;12.57;;
25207;SDS011;13153;52.316;21.166;2023-11-22T09:30:24;25.70;;;12.40;;
25207;SDS011;13153;52.316;21.166;2023-11-22T09:32:59;31.30;;;12.60;;
25207;SDS011;13153;52.316;21.166;2023-11-22T09:35:26;30.63;;;12.85;;
25207;SDS011;13153;52.316;21.166;2023-11-22T09:37:54;26.38;;;11.85;;
25207;SDS011;13153;52.316;21.166;2023-11-22T09:40:21;21.48;;;11.90;;
25207;SDS011;13153;52.316;21.166;2023-11-22T09:42:47;25.73;;;12.60;;
25207;SDS011;13153;52.316;21.166;2023-11-22T09:45:19;24.98;;;12.65;;
25207;SDS011;13153;52.316;21.166;2023-11-22T09:47:46;25.35;;;12.70;;
25207;SDS011;13153;52.316;21.166;2023-11-22T09:50:14;30.83;;;14.75;;
25207;SDS011;13153;52.316;21.166;2023-11-22T09:52:52;25.45;;;12.75;;
25207;SDS011;13153;52.316;21.166;2023-11-22T09:55:26;27.90;;;13.13;;
25207;SDS011;13153;52.316;21.166;2023-11-22T09:57:55;23.95;;;12.15;;
25207;SDS011;13153;52.316;21.166;2023-11-22T10:00:26;35.00;;;13.55;;
25207;SDS011;13153;52.316;21.166;2023-11-22T10:02:55;34.30;;;15.57;;
25207;SDS011;13153;52.316;21.166;2023-11-22T10:05:22;30.27;;;14.27;;
25207;SDS011;13153;52.316;21.166;2023-11-22T10:07:49;29.98;;;14.18;;
25207;SDS011;13153;52.316;21.166;2023-11-22T10:10:16;34.88;;;15.48;;
25207;SDS011;13153;52.316;21.166;2023-11-22T10:12:47;29.98;;;13.77;;
25207;SDS011;13153;52.316;21.166;2023-11-22T10:15:14;29.98;;;14.07;;
25207;SDS011;13153;52.316;21.166;2023-11-22T10:17:56;20.10;;;10.27;;
25207;SDS011;13153;52.316;21.166;2023-11-22T10:20:25;18.00;;;8.95;;
25207;SDS011;13153;52.316;21.166;2023-11-22T10:23:02;16.10;;;8.38;;
25207;SDS011;13153;52.316;21.166;2023-11-22T10:25:28;19.85;;;9.07;;
25207;SDS011;13153;52.316;21.166;2023-11-22T10:27:57;17.63;;;8.55;;
25207;SDS011;13153;52.316;21.166;2023-11-22T10:30:23;18.30;;;8.52;;
25207;SDS011;13153;52.316;21.166;2023-11-22T10:32:49;17.50;;;9.43;;
25207;SDS011;13153;52.316;21.166;2023-11-22T10:35:18;20.23;;;9.45;;
25207;SDS011;13153;52.316;21.166;2023-11-22T10:37:47;20.48;;;10.60;;
25207;SDS011;13153;52.316;21.166;2023-11-22T10:40:13;25.75;;;10.43;;
25207;SDS011;13153;52.316;21.166;2023-11-22T10:42:41;22.13;;;9.57;;
25207;SDS011;13153;52.316;21.166;2023-11-22T10:45:08;15.73;;;8.63;;
25207;SDS011;13153;52.316;21.166;2023-11-22T10:47:38;16.67;;;8.43;;
25207;SDS011;13153;52.316;21.166;2023-11-22T10:50:06;21.17;;;7.85;;
25207;SDS011;13153;52.316;21.166;2023-11-22T10:52:34;13.27;;;7.30;;
25207;SDS011;13153;52.316;21.166;2023-11-22T10:55:02;21.83;;;10.20;;
25207;SDS011;13153;52.316;21.166;2023-11-22T10:57:31;20.42;;;9.77;;
25207;SDS011;13153;52.316;21.166;2023-11-22T11:00:05;18.02;;;9.23;;
25207;SDS011;13153;52.316;21.166;2023-11-22T11:02:36;19.67;;;9.98;;
25207;SDS011;13153;52.316;21.166;2023-11-22T11:05:17;24.73;;;12.15;;
25207;SDS011;13153;52.316;21.166;2023-11-22T11:07:54;26.88;;;12.10;;
25207;SDS011;13153;52.316;21.166;2023-11-22T11:10:38;19.77;;;9.40;;
25207;SDS011;13153;52.316;21.166;2023-11-22T11:13:08;16.52;;;9.40;;
25207;SDS011;13153;52.316;21.166;2023-11-22T11:15:36;18.10;;;9.65;;
25207;SDS011;13153;52.316;21.166;2023-11-22T11:20:51;20.73;;;9.40;;
25207;SDS011;13153;52.316;21.166;2023-11-22T11:23:22;19.33;;;9.60;;
25207;SDS011;13153;52.316;21.166;2023-11-22T11:28:21;19.40;;;9.50;;
25207;SDS011;13153;52.316;21.166;2023-11-22T11:30:51;22.65;;;9.50;;
25207;SDS011;13153;52.316;21.166;2023-11-22T11:33:26;17.83;;;8.85;;
25207;SDS011;13153;52.316;21.166;2023-11-22T11:36:00;18.75;;;9.55;;
25207;SDS011;13153;52.316;21.166;2023-11-22T11:38:32;17.52;;;9.20;;
25207;SDS011;13153;52.316;21.166;2023-11-22T11:41:11;16.15;;;8.75;;
25207;SDS011;13153;52.316;21.166;2023-11-22T11:43:45;19.52;;;8.98;;
25207;SDS011;13153;52.316;21.166;2023-11-22T11:46:15;16.73;;;9.55;;
25207;SDS011;13153;52.316;21.166;2023-11-22T11:48:49;21.08;;;9.45;;
25207;SDS011;13153;52.316;21.166;2023-11-22T11:51:17;21.70;;;10.63;;
25207;SDS011;13153;52.316;21.166;2023-11-22T11:53:46;19.23;;;10.50;;
25207;SDS011;13153;52.316;21.166;2023-11-22T11:56:12;19.65;;;10.07;;
25207;SDS011;13153;52.316;21.166;2023-11-22T11:58:40;21.20;;;10.60;;
25207;SDS011;13153;52.316;21.166;2023-11-22T12:01:14;19.75;;;10.45;;
25207;SDS011;13153;52.316;21.166;2023-11-22T12:03:42;22.77;;;10.80;;
25207;SDS011;13153;52.316;21.166;2023-11-22T12:06:09;20.65;;;10.40;;
25207;SDS011;13153;52.316;21.166;2023-11-22T12:08:35;19.48;;;10.60;;
25207;SDS011;13153;52.316;21.166;2023-11-22T12:11:04;23.17;;;10.85;;
25207;SDS011;13153;52.316;21.166;2023-11-22T12:13:33;22.27;;;10.57;;
25207;SDS011;13153;52.316;21.166;2023-11-22T12:16:03;22.17;;;11.25;;
25207;SDS011;13153;52.316;21.166;2023-11-22T12:21:07;23.85;;;12.10;;
25207;SDS011;13153;52.316;21.166;2023-11-22T12:23:33;23.98;;;12.07;;
25207;SDS011;13153;52.316;21.166;2023-11-22T12:26:01;24.27;;;11.35;;
25207;SDS011;13153;52.316;21.166;2023-11-22T12:28:27;20.08;;;11.38;;
25207;SDS011;13153;52.316;21.166;2023-11-22T12:31:06;27.05;;;12.15;;
25207;SDS011;13153;52.316;21.166;2023-11-22T12:33:36;23.17;;;11.93;;
25207;SDS011;13153;52.316;21.166;2023-11-22T12:36:04;23.10;;;11.43;;
25207;SDS011;13153;52.316;21.166;2023-11-22T12:38:34;22.50;;;11.32;;
25207;SDS011;13153;52.316;21.166;2023-11-22T12:41:01;23.33;;;11.18;;
25207;SDS011;13153;52.316;21.166;2023-11-22T12:43:31;21.05;;;10.77;;
25207;SDS011;13153;52.316;21.166;2023-11-22T12:46:01;20.45;;;10.40;;
25207;SDS011;13153;52.316;21.166;2023-11-22T12:48:31;23.93;;;10.93;;
25207;SDS011;13153;52.316;21.166;2023-11-22T12:50:58;25.20;;;11.13;;
25207;SDS011;13153;52.316;21.166;2023-11-22T12:53:25;27.13;;;11.85;;
25207;SDS011;13153;52.316;21.166;2023-11-22T12:55:55;23.98;;;12.10;;
25207;SDS011;13153;52.316;21.166;2023-11-22T12:58:22;25.42;;;12.07;;
25207;SDS011;13153;52.316;21.166;2023-11-22T13:00:52;25.77;;;11.80;;
25207;SDS011;13153;52.316;21.166;2023-11-22T13:03:26;25.73;;;12.20;;
25207;SDS011;13153;52.316;21.166;2023-11-22T13:05:53;25.77;;;11.98;;
25207;SDS011;13153;52.316;21.166;2023-11-22T13:08:20;27.48;;;13.30;;
25207;SDS011;13153;52.316;21.166;2023-11-22T13:10:47;28.13;;;13.05;;
25207;SDS011;13153;52.316;21.166;2023-11-22T13:13:22;26.17;;;12.93;;
25207;SDS011;13153;52.316;21.166;2023-11-22T13:15:50;29.50;;;13.48;;
25207;SDS011;13153;52.316;21.166;2023-11-22T13:18:17;31.00;;;12.98;;
25207;SDS011;13153;52.316;21.166;2023-11-22T13:20:43;26.20;;;12.18;;
25207;SDS011;13153;52.316;21.166;2023-11-22T13:23:10;22.65;;;11.27;;
25207;SDS011;13153;52.316;21.166;2023-11-22T13:25:37;23.08;;;12.32;;
25207;SDS011;13153;52.316;21.166;2023-11-22T13:28:03;24.38;;;11.23;;
25207;SDS011;13153;52.316;21.166;2023-11-22T13:30:31;21.60;;;10.40;;
25207;SDS011;13153;52.316;21.166;2023-11-22T13:32:57;18.20;;;10.38;;
25207;SDS011;13153;52.316;21.166;2023-11-22T13:35:23;22.33;;;11.25;;
25207;SDS011;13153;52.316;21.166;2023-11-22T13:37:55;20.52;;;10.95;;
25207;SDS011;13153;52.316;21.166;2023-11-22T13:40:24;20.38;;;11.15;;
25207;SDS011;13153;52.316;21.166;2023-11-22T13:42:52;25.25;;;11.82;;
25207;SDS011;13153;52.316;21.166;2023-11-22T13:45:18;23.10;;;11.25;;
25207;SDS011;13153;52.316;21.166;2023-11-22T13:47:49;23.42;;;12.15;;
25207;SDS011;13153;52.316;21.166;2023-11-22T13:50:28;24.55;;;11.52;;
25207;SDS011;13153;52.316;21.166;2023-11-22T13:52:55;26.02;;;11.07;;
25207;SDS011;13153;52.316;21.166;2023-11-22T13:55:22;21.63;;;10.82;;
25207;SDS011;13153;52.316;21.166;2023-11-22T13:57:52;22.63;;;10.88;;
25207;SDS011;13153;52.316;21.166;2023-11-22T14:00:20;22.23;;;11.57;;
25207;SDS011;13153;52.316;21.166;2023-11-22T14:02:49;23.00;;;11.32;;
25207;SDS011;13153;52.316;21.166;2023-11-22T14:05:17;23.77;;;11.18;;
25207;SDS011;13153;52.316;21.166;2023-11-22T14:07:44;20.67;;;10.82;;
25207;SDS011;13153;52.316;21.166;2023-11-22T14:10:10;23.23;;;11.48;;
25207;SDS011;13153;52.316;21.166;2023-11-22T14:12:37;24.83;;;11.57;;
25207;SDS011;13153;52.316;21.166;2023-11-22T14:15:03;23.83;;;11.48;;
25207;SDS011;13153;52.316;21.166;2023-11-22T14:17:30;23.23;;;11.23;;
25207;SDS011;13153;52.316;21.166;2023-11-22T14:19:56;22.35;;;10.55;;
25207;SDS011;13153;52.316;21.166;2023-11-22T14:22:23;18.30;;;9.65;;
25207;SDS011;13153;52.316;21.166;2023-11-22T14:24:49;20.55;;;10.95;;
25207;SDS011;13153;52.316;21.166;2023-11-22T14:27:17;18.10;;;9.70;;
25207;SDS011;13153;52.316;21.166;2023-11-22T14:29:44;22.48;;;10.55;;